createdAt,value
2023-04-22T00:00:17.306Z,0.4646
2023-04-22T00:01:18.409Z,0.4644
2023-04-22T00:02:19.624Z,0.4627
2023-04-22T00:03:20.720Z,0.4619
2023-04-22T00:04:22.101Z,0.4623
2023-04-22T00:05:22.986Z,0.4636
2023-04-22T00:06:23.882Z,0.4651
2023-04-22T00:07:24.962Z,0.4648
2023-04-22T00:08:26.049Z,0.4639
2023-04-22T00:09:27.137Z,0.4646
2023-04-22T00:10:28.252Z,0.4641
2023-04-22T00:11:29.329Z,0.4637
2023-04-22T00:12:30.424Z,0.4626
2023-04-22T00:13:31.531Z,0.4623
2023-04-22T00:14:32.624Z,0.4628
2023-04-22T00:15:33.729Z,0.4639
2023-04-22T00:16:34.884Z,0.4635
2023-04-22T00:17:35.986Z,0.4643
2023-04-22T00:18:38.083Z,0.4654
2023-04-22T00:19:38.312Z,0.4664
2023-04-22T00:20:39.194Z,0.4680
2023-04-22T00:21:40.310Z,0.4688
2023-04-22T00:22:41.394Z,0.4698
2023-04-22T00:23:42.459Z,0.4684
2023-04-22T00:24:43.579Z,0.4676
2023-04-22T00:25:44.666Z,0.4677
2023-04-22T00:26:45.743Z,0.4687
2023-04-22T00:27:46.856Z,0.4682
2023-04-22T00:28:47.932Z,0.4683
2023-04-22T00:29:49.040Z,0.4659
2023-04-22T00:30:50.626Z,0.4657
2023-04-22T00:31:51.256Z,0.4671
2023-04-22T00:32:52.399Z,0.4674
2023-04-22T00:33:53.380Z,0.4673
2023-04-22T00:34:54.492Z,0.4676
2023-04-22T00:35:55.579Z,0.4662
2023-04-22T00:36:56.695Z,0.4653
2023-04-22T00:37:57.758Z,0.4645
2023-04-22T00:38:58.886Z,0.4658
2023-04-22T00:39:59.968Z,0.4668
2023-04-22T00:41:01.038Z,0.4684
2023-04-22T00:42:02.155Z,0.4699
2023-04-22T00:43:03.228Z,0.4708
2023-04-22T00:44:04.340Z,0.4726
2023-04-22T00:45:05.451Z,0.4709
2023-04-22T00:46:06.537Z,0.4722
2023-04-22T00:47:07.678Z,0.4719
2023-04-22T00:48:08.774Z,0.4722
2023-04-22T00:49:09.808Z,0.4721
2023-04-22T00:50:10.921Z,0.4712
2023-04-22T00:51:12.003Z,0.4712
2023-04-22T00:52:13.101Z,0.4717
2023-04-22T00:53:14.181Z,0.4725
2023-04-22T00:54:15.278Z,0.4721
2023-04-22T00:55:16.420Z,0.4730
2023-04-22T00:56:17.502Z,0.4737
2023-04-22T00:57:18.557Z,0.4744
2023-04-22T00:58:19.670Z,0.4737
2023-04-22T00:59:20.736Z,0.4729
2023-04-22T01:00:21.844Z,0.4744
2023-04-22T01:01:22.960Z,0.4749
2023-04-22T01:02:24.100Z,0.4731
2023-04-22T01:03:25.238Z,0.4720
2023-04-22T01:04:26.259Z,0.4708
2023-04-22T01:05:27.292Z,0.4705
2023-04-22T01:06:28.404Z,0.4700
2023-04-22T01:07:29.486Z,0.4709
2023-04-22T01:08:30.588Z,0.4721
2023-04-22T01:09:31.667Z,0.4714
2023-04-22T01:10:32.749Z,0.4710
2023-04-22T01:11:33.852Z,0.4697
2023-04-22T01:12:34.929Z,0.4703
2023-04-22T01:13:36.036Z,0.4708
2023-04-22T01:14:37.137Z,0.4715
2023-04-22T01:15:38.199Z,0.4715
2023-04-22T01:16:39.344Z,0.4727
2023-04-22T01:17:40.413Z,0.4736
2023-04-22T01:18:41.549Z,0.4746
2023-04-22T01:19:43.200Z,0.4760
2023-04-22T01:20:43.747Z,0.4764
2023-04-22T01:21:44.801Z,0.4768
2023-04-22T01:22:45.887Z,0.4769
2023-04-22T01:23:47.003Z,0.4778
2023-04-22T01:24:48.060Z,0.4781
2023-04-22T01:25:49.171Z,0.4790
2023-04-22T01:26:50.276Z,0.4787
2023-04-22T01:27:51.350Z,0.4775
2023-04-22T01:28:52.433Z,0.4792
2023-04-22T01:29:53.535Z,0.4786
2023-04-22T01:30:54.620Z,0.4781
2023-04-22T01:31:55.757Z,0.4775
2023-04-22T01:32:56.820Z,0.4770
2023-04-22T01:33:57.888Z,0.4752
2023-04-22T01:34:58.965Z,0.4744
2023-04-22T01:36:00.108Z,0.4732
2023-04-22T01:37:01.165Z,0.4726
2023-04-22T01:38:02.250Z,0.4730
2023-04-22T01:39:03.352Z,0.4733
2023-04-22T01:40:04.423Z,0.4724
2023-04-22T01:41:05.498Z,0.4731
2023-04-22T01:42:06.611Z,0.4731
2023-04-22T01:43:07.691Z,0.4726
2023-04-22T01:44:08.794Z,0.4729
2023-04-22T01:45:09.859Z,0.4721
2023-04-22T01:46:11.009Z,0.4718
2023-04-22T01:47:12.049Z,0.4726
2023-04-22T01:48:13.167Z,0.4725
2023-04-22T01:49:14.217Z,0.4714
2023-04-22T01:50:15.318Z,0.4699
2023-04-22T01:51:16.432Z,0.4692
2023-04-22T01:52:17.499Z,0.4685
2023-04-22T01:53:18.585Z,0.4675
2023-04-22T01:54:19.688Z,0.4658
2023-04-22T01:55:20.821Z,0.4654
2023-04-22T01:56:21.871Z,0.4650
2023-04-22T01:57:22.976Z,0.4652
2023-04-22T01:58:24.054Z,0.4646
2023-04-22T01:59:25.126Z,0.4653
2023-04-22T02:00:26.235Z,0.4663
2023-04-22T02:01:27.326Z,0.4670
2023-04-22T02:02:28.469Z,0.4661
2023-04-22T02:03:29.665Z,0.4646
2023-04-22T02:04:30.632Z,0.4645
2023-04-22T02:05:31.676Z,0.4655
2023-04-22T02:06:32.772Z,0.4647
2023-04-22T02:07:34.170Z,0.4647
2023-04-22T02:08:34.948Z,0.4673
2023-04-22T02:09:36.077Z,0.4683
2023-04-22T02:10:37.123Z,0.4670
2023-04-22T02:11:38.213Z,0.4657
2023-04-22T02:12:39.291Z,0.4666
2023-04-22T02:13:40.382Z,0.4682
2023-04-22T02:14:41.473Z,0.4681
2023-04-22T02:15:42.611Z,0.4674
2023-04-22T02:16:43.638Z,0.4673
2023-04-22T02:17:44.726Z,0.4674
2023-04-22T02:18:45.833Z,0.4674
2023-04-22T02:19:46.945Z,0.4662
2023-04-22T02:20:48.027Z,0.4660
2023-04-22T02:21:49.121Z,0.4659
2023-04-22T02:22:50.179Z,0.4661
2023-04-22T02:23:51.281Z,0.4648
2023-04-22T02:24:52.360Z,0.4646
2023-04-22T02:25:53.454Z,0.4641
2023-04-22T02:26:54.516Z,0.4633
2023-04-22T02:27:55.705Z,0.4638
2023-04-22T02:28:56.694Z,0.4640
2023-04-22T02:29:57.798Z,0.4650
2023-04-22T02:30:58.883Z,0.4652
2023-04-22T02:32:00.028Z,0.4643
2023-04-22T02:33:01.161Z,0.4638
2023-04-22T02:34:02.157Z,0.4636
2023-04-22T02:35:03.240Z,0.4640
2023-04-22T02:36:04.316Z,0.4648
2023-04-22T02:37:05.397Z,0.4632
2023-04-22T02:38:06.498Z,0.4622
2023-04-22T02:39:07.598Z,0.4630
2023-04-22T02:40:08.662Z,0.4619
2023-04-22T02:41:09.760Z,0.4608
2023-04-22T02:42:10.828Z,0.4602
2023-04-22T02:43:11.926Z,0.4604
2023-04-22T02:44:13.003Z,0.4603
2023-04-22T02:45:14.082Z,0.4615
2023-04-22T02:46:15.233Z,0.4613
2023-04-22T02:47:16.259Z,0.4618
2023-04-22T02:48:17.379Z,0.4611
2023-04-22T02:49:18.431Z,0.4599
2023-04-22T02:50:19.541Z,0.4585
2023-04-22T02:51:20.621Z,0.4591
2023-04-22T02:52:21.720Z,0.4588
2023-04-22T02:53:22.835Z,0.4579
2023-04-22T02:54:23.885Z,0.4579
2023-04-22T02:55:24.981Z,0.4580
2023-04-22T02:56:26.054Z,0.4586
2023-04-22T02:57:27.141Z,0.4579
2023-04-22T02:58:28.242Z,0.4587
2023-04-22T02:59:29.347Z,0.4592
2023-04-22T03:00:30.418Z,0.4600
2023-04-22T03:01:31.643Z,0.4605
2023-04-22T03:02:32.706Z,0.4605
2023-04-22T03:03:33.866Z,0.4591
2023-04-22T03:04:34.837Z,0.4591
2023-04-22T03:05:35.909Z,0.4582
2023-04-22T03:06:36.974Z,0.4588
2023-04-22T03:07:38.063Z,0.4582
2023-04-22T03:08:39.182Z,0.4585
2023-04-22T03:09:40.551Z,0.4578
2023-04-22T03:10:41.320Z,0.4578
2023-04-22T03:11:42.457Z,0.4590
2023-04-22T03:12:43.534Z,0.4582
2023-04-22T03:13:44.641Z,0.4573
2023-04-22T03:14:45.697Z,0.4584
2023-04-22T03:15:46.799Z,0.4593
2023-04-22T03:16:47.974Z,0.4595
2023-04-22T03:17:49.146Z,0.4589
2023-04-22T03:18:50.065Z,0.4598
2023-04-22T03:19:51.172Z,0.4614
2023-04-22T03:20:52.262Z,0.4610
2023-04-22T03:21:53.338Z,0.4622
2023-04-22T03:22:54.469Z,0.4635
2023-04-22T03:23:55.575Z,0.4648
2023-04-22T03:24:56.624Z,0.4660
2023-04-22T03:25:57.728Z,0.4659
2023-04-22T03:26:58.809Z,0.4680
2023-04-22T03:27:59.911Z,0.4679
2023-04-22T03:29:01.021Z,0.4686
2023-04-22T03:30:02.079Z,0.4677
2023-04-22T03:31:03.178Z,0.4676
2023-04-22T03:32:04.324Z,0.4684
2023-04-22T03:33:05.367Z,0.4696
2023-04-22T03:34:06.444Z,0.4704
2023-04-22T03:35:07.535Z,0.4703
2023-04-22T03:36:08.602Z,0.4714
2023-04-22T03:37:09.706Z,0.4707
2023-04-22T03:38:10.793Z,0.4686
2023-04-22T03:39:11.899Z,0.4671
2023-04-22T03:40:13.757Z,0.4661
2023-04-22T03:41:14.095Z,0.4670
2023-04-22T03:42:15.154Z,0.4679
2023-04-22T03:43:16.228Z,0.4687
2023-04-22T03:44:17.333Z,0.4690
2023-04-22T03:45:18.415Z,0.4698
2023-04-22T03:46:19.617Z,0.4702
2023-04-22T03:47:20.673Z,0.4702
2023-04-22T03:48:21.693Z,0.4706
2023-04-22T03:49:22.787Z,0.4700
2023-04-22T03:50:23.878Z,0.4698
2023-04-22T03:51:24.952Z,0.4679
2023-04-22T03:52:26.046Z,0.4684
2023-04-22T03:53:27.159Z,0.4674
2023-04-22T03:54:28.234Z,0.4687
2023-04-22T03:55:29.298Z,0.4697
2023-04-22T03:56:30.417Z,0.4691
2023-04-22T03:57:31.493Z,0.4690
2023-04-22T03:58:32.582Z,0.4690
2023-04-22T03:59:33.671Z,0.4692
2023-04-22T04:00:34.752Z,0.4693
2023-04-22T04:01:35.828Z,0.4690
2023-04-22T04:02:37.109Z,0.4681
2023-04-22T04:03:38.224Z,0.4676
2023-04-22T04:04:39.538Z,0.4661
2023-04-22T04:05:40.223Z,0.4650
2023-04-22T04:06:41.248Z,0.4652
2023-04-22T04:07:42.343Z,0.4662
2023-04-22T04:08:43.433Z,0.4666
2023-04-22T04:09:44.553Z,0.4664
2023-04-22T04:10:45.600Z,0.4657
2023-04-22T04:11:46.743Z,0.4669
2023-04-22T04:12:47.782Z,0.4690
2023-04-22T04:13:48.857Z,0.4692
2023-04-22T04:14:49.966Z,0.4685
2023-04-22T04:15:51.072Z,0.4676
2023-04-22T04:16:52.136Z,0.4666
2023-04-22T04:17:53.255Z,0.4655
2023-04-22T04:18:54.285Z,0.4657
2023-04-22T04:19:55.560Z,0.4677
2023-04-22T04:20:56.460Z,0.4686
2023-04-22T04:21:57.564Z,0.4679
2023-04-22T04:22:58.656Z,0.4679
2023-04-22T04:23:59.775Z,0.4674
2023-04-22T04:25:00.837Z,0.4657
2023-04-22T04:26:01.919Z,0.4653
2023-04-22T04:27:03.018Z,0.4653
2023-04-22T04:28:04.104Z,0.4652
2023-04-22T04:29:05.193Z,0.4655
2023-04-22T04:30:06.332Z,0.4662
2023-04-22T04:31:07.428Z,0.4655
2023-04-22T04:32:08.504Z,0.4646
2023-04-22T04:33:09.618Z,0.4634
2023-04-22T04:34:10.635Z,0.4633
2023-04-22T04:35:11.757Z,0.4633
2023-04-22T04:36:12.850Z,0.4637
2023-04-22T04:37:13.925Z,0.4618
2023-04-22T04:38:15.017Z,0.4620
2023-04-22T04:39:16.102Z,0.4630
2023-04-22T04:40:17.203Z,0.4632
2023-04-22T04:41:18.273Z,0.4642
2023-04-22T04:42:19.399Z,0.4641
2023-04-22T04:43:20.455Z,0.4634
2023-04-22T04:44:21.573Z,0.4637
2023-04-22T04:45:22.670Z,0.4653
2023-04-22T04:46:23.797Z,0.4647
2023-04-22T04:47:24.874Z,0.4653
2023-04-22T04:48:25.923Z,0.4657
2023-04-22T04:49:27.001Z,0.4658
2023-04-22T04:50:28.143Z,0.4655
2023-04-22T04:51:29.192Z,0.4661
2023-04-22T04:52:30.285Z,0.4676
2023-04-22T04:53:31.396Z,0.4674
2023-04-22T04:54:32.484Z,0.4680
2023-04-22T04:55:33.569Z,0.4672
2023-04-22T04:56:34.648Z,0.4662
2023-04-22T04:57:37.887Z,0.4659
2023-04-22T04:58:36.816Z,0.4648
2023-04-22T04:59:38.061Z,0.4644
2023-04-22T05:00:39.037Z,0.4637
2023-04-22T05:01:40.137Z,0.4664
2023-04-22T05:02:41.504Z,0.4663
2023-04-22T05:03:42.414Z,0.4659
2023-04-22T05:04:43.532Z,0.4655
2023-04-22T05:05:44.487Z,0.4662
2023-04-22T05:06:45.544Z,0.4660
2023-04-22T05:07:46.683Z,0.4662
2023-04-22T05:08:47.724Z,0.4650
2023-04-22T05:09:48.821Z,0.4647
2023-04-22T05:10:49.914Z,0.4644
2023-04-22T05:11:51.039Z,0.4645
2023-04-22T05:12:52.095Z,0.4658
2023-04-22T05:13:53.179Z,0.4657
2023-04-22T05:14:54.297Z,0.4661
2023-04-22T05:15:55.409Z,0.4680
2023-04-22T05:16:56.688Z,0.4674
2023-04-22T05:17:57.682Z,0.4683
2023-04-22T05:18:58.729Z,0.4686
2023-04-22T05:19:59.832Z,0.4690
2023-04-22T05:21:00.977Z,0.4690
2023-04-22T05:22:02.035Z,0.4696
2023-04-22T05:23:03.134Z,0.4704
2023-04-22T05:24:04.208Z,0.4715
2023-04-22T05:25:05.278Z,0.4718
2023-04-22T05:26:06.413Z,0.4712
2023-04-22T05:27:07.476Z,0.4710
2023-04-22T05:28:08.578Z,0.4705
2023-04-22T05:29:09.667Z,0.4714
2023-04-22T05:30:10.765Z,0.4708
2023-04-22T05:31:11.917Z,0.4721
2023-04-22T05:32:12.989Z,0.4731
2023-04-22T05:33:14.057Z,0.4716
2023-04-22T05:34:15.112Z,0.4734
2023-04-22T05:35:16.240Z,0.4743
2023-04-22T05:36:17.344Z,0.4766
2023-04-22T05:37:18.425Z,0.4777
2023-04-22T05:38:19.510Z,0.4803
2023-04-22T05:39:20.602Z,0.4808
2023-04-22T05:40:21.690Z,0.4803
2023-04-22T05:41:22.824Z,0.4798
2023-04-22T05:42:23.874Z,0.4795
2023-04-22T05:43:24.984Z,0.4819
2023-04-22T05:44:26.075Z,0.4829
2023-04-22T05:45:27.151Z,0.4836
2023-04-22T05:46:28.365Z,0.4840
2023-04-22T05:47:29.413Z,0.4833
2023-04-22T05:48:30.437Z,0.4831
2023-04-22T05:49:31.539Z,0.4834
2023-04-22T05:50:32.712Z,0.4827
2023-04-22T05:51:33.725Z,0.4823
2023-04-22T05:52:34.817Z,0.4818
2023-04-22T05:53:35.910Z,0.4828
2023-04-22T05:54:37.007Z,0.4836
2023-04-22T05:55:38.078Z,0.4836
2023-04-22T05:56:39.200Z,0.4828
2023-04-22T05:57:40.288Z,0.4809
2023-04-22T05:58:41.371Z,0.4807
2023-04-22T05:59:42.742Z,0.4794
2023-04-22T06:00:43.559Z,0.4801
2023-04-22T06:01:44.655Z,0.4816
2023-04-22T06:02:45.955Z,0.4812
2023-04-22T06:03:47.044Z,0.4803
2023-04-22T06:04:48.193Z,0.4801
2023-04-22T06:05:49.122Z,0.4797
2023-04-22T06:06:50.116Z,0.4805
2023-04-22T06:07:51.187Z,0.4806
2023-04-22T06:08:52.296Z,0.4797
2023-04-22T06:10:02.207Z,0.4804
2023-04-22T06:10:55.476Z,0.4811
2023-04-22T06:11:55.556Z,0.4821
2023-04-22T06:12:56.648Z,0.4831
2023-04-22T06:13:57.750Z,0.4805
2023-04-22T06:14:58.850Z,0.4790
2023-04-22T06:16:00.008Z,0.4788
2023-04-22T06:17:01.060Z,0.4787
2023-04-22T06:18:02.130Z,0.4771
2023-04-22T06:19:03.211Z,0.4760
2023-04-22T06:20:04.314Z,0.4760
2023-04-22T06:21:05.406Z,0.4764
2023-04-22T06:22:06.693Z,0.4762
2023-04-22T06:23:07.580Z,0.4763
2023-04-22T06:24:08.722Z,0.4761
2023-04-22T06:25:09.754Z,0.4745
2023-04-22T06:26:10.834Z,0.4747
2023-04-22T06:27:11.947Z,0.4747
2023-04-22T06:28:13.080Z,0.4759
2023-04-22T06:29:14.133Z,0.4770
2023-04-22T06:30:15.233Z,0.4776
2023-04-22T06:31:17.603Z,0.4778
2023-04-22T06:32:17.422Z,0.4785
2023-04-22T06:33:18.505Z,0.4790
2023-04-22T06:34:19.644Z,0.4807
2023-04-22T06:35:20.665Z,0.4812
2023-04-22T06:36:21.766Z,0.4803
2023-04-22T06:37:22.864Z,0.4794
2023-04-22T06:38:23.965Z,0.4789
2023-04-22T06:39:25.033Z,0.4793
2023-04-22T06:40:26.158Z,0.4786
2023-04-22T06:41:27.233Z,0.4783
2023-04-22T06:42:28.315Z,0.4785
2023-04-22T06:43:29.423Z,0.4782
2023-04-22T06:44:30.513Z,0.4762
2023-04-22T06:45:31.602Z,0.4758
2023-04-22T06:46:32.708Z,0.4754
2023-04-22T06:47:33.809Z,0.4743
2023-04-22T06:48:34.870Z,0.4743
2023-04-22T06:49:35.954Z,0.4736
2023-04-22T06:50:37.049Z,0.4736
2023-04-22T06:51:38.156Z,0.4740
2023-04-22T06:52:39.299Z,0.4737
2023-04-22T06:53:40.323Z,0.4728
2023-04-22T06:54:41.417Z,0.4724
2023-04-22T06:55:42.513Z,0.4714
2023-04-22T06:56:43.602Z,0.4704
2023-04-22T06:57:44.724Z,0.4715
2023-04-22T06:58:45.796Z,0.4708
2023-04-22T06:59:47.284Z,0.4705
2023-04-22T07:00:47.981Z,0.4702
2023-04-22T07:01:49.106Z,0.4699
2023-04-22T07:02:50.264Z,0.4690
2023-04-22T07:03:51.314Z,0.4666
2023-04-22T07:04:52.371Z,0.4664
2023-04-22T07:05:53.461Z,0.4674
2023-04-22T07:06:54.521Z,0.4673
2023-04-22T07:07:55.594Z,0.4661
2023-04-22T07:08:56.701Z,0.4656
2023-04-22T07:09:57.777Z,0.4649
2023-04-22T07:10:58.889Z,0.4645
2023-04-22T07:12:00.131Z,0.4651
2023-04-22T07:13:01.067Z,0.4650
2023-04-22T07:14:02.155Z,0.4652
2023-04-22T07:15:03.265Z,0.4663
2023-04-22T07:16:04.381Z,0.4651
2023-04-22T07:17:05.457Z,0.4658
2023-04-22T07:18:06.567Z,0.4659
2023-04-22T07:19:07.643Z,0.4663
2023-04-22T07:20:08.754Z,0.4660
2023-04-22T07:21:09.812Z,0.4661
2023-04-22T07:22:10.934Z,0.4657
2023-04-22T07:23:12.074Z,0.4659
2023-04-22T07:24:13.120Z,0.4669
2023-04-22T07:25:14.202Z,0.4669
2023-04-22T07:26:15.289Z,0.4677
2023-04-22T07:27:16.390Z,0.4677
2023-04-22T07:28:17.475Z,0.4709
2023-04-22T07:29:18.601Z,0.4720
2023-04-22T07:30:19.654Z,0.4713
2023-04-22T07:31:20.814Z,0.4710
2023-04-22T07:32:21.858Z,0.4703
2023-04-22T07:33:22.933Z,0.4716
2023-04-22T07:34:24.066Z,0.4738
2023-04-22T07:35:25.149Z,0.4754
2023-04-22T07:36:26.201Z,0.4759
2023-04-22T07:37:27.316Z,0.4750
2023-04-22T07:38:28.439Z,0.4735
2023-04-22T07:39:29.498Z,0.4714
2023-04-22T07:40:30.605Z,0.4703
2023-04-22T07:41:31.725Z,0.4702
2023-04-22T07:42:32.782Z,0.4691
2023-04-22T07:43:33.862Z,0.4685
2023-04-22T07:44:36.144Z,0.4680
2023-04-22T07:45:36.110Z,0.4679
2023-04-22T07:46:37.150Z,0.4679
2023-04-22T07:47:38.384Z,0.4676
2023-04-22T07:48:39.333Z,0.4667
2023-04-22T07:49:40.740Z,0.4670
2023-04-22T07:50:41.501Z,0.4671
2023-04-22T07:51:42.587Z,0.4679
2023-04-22T07:52:43.685Z,0.4707
2023-04-22T07:53:44.815Z,0.4717
2023-04-22T07:54:45.863Z,0.4723
2023-04-22T07:55:46.960Z,0.4707
2023-04-22T07:56:48.066Z,0.4723
2023-04-22T07:57:49.187Z,0.4721
2023-04-22T07:58:50.277Z,0.4725
2023-04-22T07:59:51.393Z,0.4740
2023-04-22T08:00:52.461Z,0.4748
2023-04-22T08:01:53.652Z,0.4756
2023-04-22T08:02:54.810Z,0.4754
2023-04-22T08:03:56.140Z,0.4744
2023-04-22T08:04:56.947Z,0.4724
2023-04-22T08:05:57.940Z,0.4725
2023-04-22T08:06:59.063Z,0.4732
2023-04-22T08:08:00.151Z,0.4729
2023-04-22T08:09:01.225Z,0.4727
2023-04-22T08:10:02.326Z,0.4717
2023-04-22T08:11:03.440Z,0.4699
2023-04-22T08:12:04.507Z,0.4690
2023-04-22T08:13:05.596Z,0.4684
2023-04-22T08:14:06.689Z,0.4672
2023-04-22T08:15:07.791Z,0.4674
2023-04-22T08:16:08.910Z,0.4658
2023-04-22T08:17:10.001Z,0.4644
2023-04-22T08:18:11.067Z,0.4634
2023-04-22T08:19:12.176Z,0.4633
2023-04-22T08:20:13.239Z,0.4644
2023-04-22T08:21:14.351Z,0.4637
2023-04-22T08:22:15.448Z,0.4632
2023-04-22T08:23:16.566Z,0.4628
2023-04-22T08:24:17.647Z,0.4633
2023-04-22T08:25:18.755Z,0.4637
2023-04-22T08:26:19.844Z,0.4633
2023-04-22T08:27:20.910Z,0.4637
2023-04-22T08:28:22.047Z,0.4642
2023-04-22T08:29:23.109Z,0.4644
2023-04-22T08:30:24.206Z,0.4651
2023-04-22T08:31:25.310Z,0.4658
2023-04-22T08:32:26.528Z,0.4668
2023-04-22T08:33:27.515Z,0.4650
2023-04-22T08:34:28.635Z,0.4640
2023-04-22T08:35:29.673Z,0.4653
2023-04-22T08:36:30.751Z,0.4652
2023-04-22T08:37:31.833Z,0.4642
2023-04-22T08:38:32.941Z,0.4631
2023-04-22T08:39:34.057Z,0.4603
2023-04-22T08:40:35.111Z,0.4593
2023-04-22T08:41:36.204Z,0.4586
2023-04-22T08:42:37.302Z,0.4586
2023-04-22T08:43:38.393Z,0.4579
2023-04-22T08:44:39.495Z,0.4576
2023-04-22T08:45:40.597Z,0.4590
2023-04-22T08:46:41.707Z,0.4591
2023-04-22T08:47:42.796Z,0.4581
2023-04-22T08:48:43.855Z,0.4587
2023-04-22T08:49:44.962Z,0.4583
2023-04-22T08:50:46.079Z,0.4596
2023-04-22T08:51:47.137Z,0.4604
2023-04-22T08:52:48.218Z,0.4600
2023-04-22T08:53:49.314Z,0.4591
2023-04-22T08:54:58.299Z,0.4597
2023-04-22T08:55:51.505Z,0.4611
2023-04-22T08:56:52.616Z,0.4633
2023-04-22T08:57:53.689Z,0.4644
2023-04-22T08:58:54.772Z,0.4636
2023-04-22T08:59:55.983Z,0.4619
2023-04-22T09:00:56.973Z,0.4597
2023-04-22T09:01:58.154Z,0.4584
2023-04-22T09:02:59.222Z,0.4590
2023-04-22T09:04:00.520Z,0.4589
2023-04-22T09:05:01.355Z,0.4579
2023-04-22T09:06:02.459Z,0.4576
2023-04-22T09:07:03.533Z,0.4577
2023-04-22T09:08:04.615Z,0.4584
2023-04-22T09:09:05.719Z,0.4596
2023-04-22T09:10:06.815Z,0.4609
2023-04-22T09:11:07.924Z,0.4625
2023-04-22T09:12:09.005Z,0.4651
2023-04-22T09:13:10.085Z,0.4660
2023-04-22T09:14:11.190Z,0.4670
2023-04-22T09:15:12.265Z,0.4667
2023-04-22T09:16:13.400Z,0.4669
2023-04-22T09:17:14.479Z,0.4661
2023-04-22T09:18:15.568Z,0.4660
2023-04-22T09:19:16.641Z,0.4664
2023-04-22T09:20:17.834Z,0.4656
2023-04-22T09:21:18.902Z,0.4658
2023-04-22T09:22:20.002Z,0.4659
2023-04-22T09:23:21.100Z,0.4660
2023-04-22T09:24:22.201Z,0.4657
2023-04-22T09:25:23.275Z,0.4651
2023-04-22T09:26:24.432Z,0.4659
2023-04-22T09:27:25.484Z,0.4656
2023-04-22T09:28:26.567Z,0.4662
2023-04-22T09:29:27.661Z,0.4674
2023-04-22T09:30:28.772Z,0.4671
2023-04-22T09:31:29.853Z,0.4669
2023-04-22T09:32:31.015Z,0.4680
2023-04-22T09:33:32.060Z,0.4682
2023-04-22T09:34:33.171Z,0.4682
2023-04-22T09:35:34.227Z,0.4684
2023-04-22T09:36:35.340Z,0.4690
2023-04-22T09:37:46.577Z,0.4691
2023-04-22T09:38:38.514Z,0.4697
2023-04-22T09:39:38.892Z,0.4679
2023-04-22T09:40:39.719Z,0.4680
2023-04-22T09:41:40.813Z,0.4680
2023-04-22T09:42:41.914Z,0.4660
2023-04-22T09:43:42.985Z,0.4655
2023-04-22T09:44:44.087Z,0.4639
2023-04-22T09:45:45.205Z,0.4620
2023-04-22T09:46:46.262Z,0.4613
2023-04-22T09:47:47.415Z,0.4617
2023-04-22T09:48:48.435Z,0.4619
2023-04-22T09:49:49.546Z,0.4616
2023-04-22T09:50:50.644Z,0.4620
2023-04-22T09:51:51.715Z,0.4617
2023-04-22T09:52:52.802Z,0.4606
2023-04-22T09:53:53.939Z,0.4605
2023-04-22T09:54:55.012Z,0.4601
2023-04-22T09:55:56.093Z,0.4604
2023-04-22T09:56:57.182Z,0.4603
2023-04-22T09:57:58.271Z,0.4614
2023-04-22T09:58:59.363Z,0.4624
2023-04-22T10:00:00.503Z,0.4625
2023-04-22T10:01:01.586Z,0.4635
2023-04-22T10:02:02.683Z,0.4635
2023-04-22T10:03:03.824Z,0.4640
2023-04-22T10:04:04.874Z,0.4651
2023-04-22T10:05:05.914Z,0.4659
2023-04-22T10:06:07.045Z,0.4661
2023-04-22T10:07:08.125Z,0.4670
2023-04-22T10:08:09.275Z,0.4666
2023-04-22T10:09:10.311Z,0.4659
2023-04-22T10:10:11.387Z,0.4652
2023-04-22T10:11:12.477Z,0.4647
2023-04-22T10:12:14.114Z,0.4663
2023-04-22T10:13:14.674Z,0.4671
2023-04-22T10:14:15.766Z,0.4689
2023-04-22T10:15:16.849Z,0.4690
2023-04-22T10:16:17.965Z,0.4677
2023-04-22T10:17:19.039Z,0.4667
2023-04-22T10:18:20.179Z,0.4659
2023-04-22T10:19:21.258Z,0.4651
2023-04-22T10:20:22.339Z,0.4637
2023-04-22T10:21:25.228Z,0.4637
2023-04-22T10:22:24.505Z,0.4612
2023-04-22T10:23:25.628Z,0.4611
2023-04-22T10:24:26.703Z,0.4602
2023-04-22T10:25:27.795Z,0.4598
2023-04-22T10:26:28.882Z,0.4590
2023-04-22T10:27:29.982Z,0.4585
2023-04-22T10:28:31.048Z,0.4589
2023-04-22T10:29:32.161Z,0.4597
2023-04-22T10:30:33.241Z,0.4599
2023-04-22T10:31:34.402Z,0.4589
2023-04-22T10:32:35.464Z,0.4594
2023-04-22T10:33:36.546Z,0.4602
2023-04-22T10:34:37.630Z,0.4587
2023-04-22T10:35:38.736Z,0.4596
2023-04-22T10:36:39.805Z,0.4618
2023-04-22T10:37:40.914Z,0.4611
2023-04-22T10:38:42.054Z,0.4607
2023-04-22T10:39:43.479Z,0.4612
2023-04-22T10:40:44.192Z,0.4625
2023-04-22T10:41:45.347Z,0.4631
2023-04-22T10:42:46.377Z,0.4631
2023-04-22T10:43:47.529Z,0.4617
2023-04-22T10:44:48.596Z,0.4600
2023-04-22T10:45:49.736Z,0.4597
2023-04-22T10:46:50.768Z,0.4611
2023-04-22T10:47:51.951Z,0.4618
2023-04-22T10:48:52.977Z,0.4618
2023-04-22T10:49:54.052Z,0.4623
2023-04-22T10:50:55.137Z,0.4619
2023-04-22T10:51:56.234Z,0.4613
2023-04-22T10:52:57.322Z,0.4600
2023-04-22T10:53:58.434Z,0.4598
2023-04-22T10:54:59.527Z,0.4603
2023-04-22T10:56:00.605Z,0.4606
2023-04-22T10:57:01.695Z,0.4606
2023-04-22T10:58:02.773Z,0.4600
2023-04-22T10:59:03.876Z,0.4588
2023-04-22T11:00:04.991Z,0.4567
2023-04-22T11:01:06.073Z,0.4553
2023-04-22T11:02:07.182Z,0.4531
2023-04-22T11:03:08.442Z,0.4521
2023-04-22T11:04:09.682Z,0.4520
2023-04-22T11:05:10.424Z,0.4527
2023-04-22T11:06:11.530Z,0.4529
2023-04-22T11:07:12.603Z,0.4544
2023-04-22T11:08:13.708Z,0.4547
2023-04-22T11:09:14.802Z,0.4551
2023-04-22T11:10:15.960Z,0.4545
2023-04-22T11:11:17.006Z,0.4539
2023-04-22T11:12:18.058Z,0.4555
2023-04-22T11:13:19.197Z,0.4573
2023-04-22T11:14:20.318Z,0.4574
2023-04-22T11:15:21.422Z,0.4574
2023-04-22T11:16:22.798Z,0.4587
2023-04-22T11:17:23.645Z,0.4572
2023-04-22T11:18:24.707Z,0.4561
2023-04-22T11:19:25.787Z,0.4561
2023-04-22T11:20:26.891Z,0.4569
2023-04-22T11:21:27.993Z,0.4573
2023-04-22T11:22:29.085Z,0.4573
2023-04-22T11:23:30.168Z,0.4561
2023-04-22T11:24:31.267Z,0.4549
2023-04-22T11:25:32.334Z,0.4534
2023-04-22T11:26:33.446Z,0.4528
2023-04-22T11:27:34.517Z,0.4529
2023-04-22T11:28:35.648Z,0.4531
2023-04-22T11:29:36.731Z,0.4542
2023-04-22T11:30:37.817Z,0.4542
2023-04-22T11:31:38.909Z,0.4536
2023-04-22T11:32:40.036Z,0.4531
2023-04-22T11:33:41.080Z,0.4529
2023-04-22T11:34:42.217Z,0.4533
2023-04-22T11:35:43.285Z,0.4538
2023-04-22T11:36:44.371Z,0.4531
2023-04-22T11:37:45.476Z,0.4534
2023-04-22T11:38:46.558Z,0.4542
2023-04-22T11:40:10.257Z,0.4545
2023-04-22T11:40:49.838Z,0.4549
2023-04-22T11:41:49.837Z,0.4546
2023-04-22T11:42:50.922Z,0.4550
2023-04-22T11:43:52.032Z,0.4560
2023-04-22T11:44:53.099Z,0.4559
2023-04-22T11:45:54.230Z,0.4553
2023-04-22T11:46:55.341Z,0.4548
2023-04-22T11:47:56.446Z,0.4534
2023-04-22T11:48:57.475Z,0.4534
2023-04-22T11:49:58.599Z,0.4521
2023-04-22T11:50:59.660Z,0.4511
2023-04-22T11:52:00.768Z,0.4525
2023-04-22T11:53:01.887Z,0.4538
2023-04-22T11:54:02.959Z,0.4523
2023-04-22T11:55:04.044Z,0.4520
2023-04-22T11:56:05.129Z,0.4509
2023-04-22T11:57:06.263Z,0.4514
2023-04-22T11:58:07.320Z,0.4496
2023-04-22T11:59:08.434Z,0.4486
2023-04-22T12:00:09.514Z,0.4497
2023-04-22T12:01:10.580Z,0.4515
2023-04-22T12:02:11.844Z,0.4520
2023-04-22T12:03:14.986Z,0.4521
2023-04-22T12:04:13.984Z,0.4521
2023-04-22T12:05:15.038Z,0.4514
2023-04-22T12:06:16.062Z,0.4508
2023-04-22T12:07:17.137Z,0.4498
2023-04-22T12:08:18.242Z,0.4493
2023-04-22T12:09:19.339Z,0.4493
2023-04-22T12:10:20.433Z,0.4495
2023-04-22T12:11:21.516Z,0.4502
2023-04-22T12:12:22.657Z,0.4503
2023-04-22T12:13:23.705Z,0.4504
2023-04-22T12:14:24.913Z,0.4517
2023-04-22T12:15:25.934Z,0.4533
2023-04-22T12:16:27.057Z,0.4546
2023-04-22T12:17:28.134Z,0.4557
2023-04-22T12:18:29.186Z,0.4555
2023-04-22T12:19:30.292Z,0.4547
2023-04-22T12:20:31.387Z,0.4546
2023-04-22T12:21:32.477Z,0.4536
2023-04-22T12:22:33.567Z,0.4525
2023-04-22T12:23:34.642Z,0.4531
2023-04-22T12:24:35.740Z,0.4542
2023-04-22T12:25:36.831Z,0.4563
2023-04-22T12:26:37.959Z,0.4557
2023-04-22T12:27:39.010Z,0.4532
2023-04-22T12:28:40.128Z,0.4529
2023-04-22T12:29:41.299Z,0.4534
2023-04-22T12:30:42.357Z,0.4539
2023-04-22T12:31:43.407Z,0.4532
2023-04-22T12:32:44.538Z,0.4526
2023-04-22T12:33:45.604Z,0.4531
2023-04-22T12:34:46.696Z,0.4537
2023-04-22T12:35:47.805Z,0.4529
2023-04-22T12:36:48.870Z,0.4535
2023-04-22T12:37:50.715Z,0.4545
2023-04-22T12:38:51.093Z,0.4546
2023-04-22T12:39:52.180Z,0.4556
2023-04-22T12:40:53.251Z,0.4572
2023-04-22T12:41:54.363Z,0.4568